createdAt,value
2019-03-13T00:02:52.629Z,8.00
2019-03-13T00:05:56.158Z,8.00
2019-03-13T00:08:59.617Z,7.60
2019-03-13T00:12:03.057Z,7.20
2019-03-13T00:15:09.574Z,6.80
2019-03-13T00:18:13.103Z,6.40
2019-03-13T00:21:16.573Z,6.20
2019-03-13T00:24:20.010Z,6.00
2019-03-13T00:27:23.474Z,5.90
2019-03-13T00:30:26.929Z,5.90
2019-03-13T00:33:30.363Z,5.80
2019-03-13T00:36:33.818Z,5.60
2019-03-13T00:39:37.250Z,5.40
2019-03-13T00:42:40.711Z,5.20
2019-03-13T00:45:44.415Z,5.00
2019-03-13T00:48:47.881Z,5.00
2019-03-13T00:51:51.342Z,4.90
2019-03-13T00:54:54.774Z,4.90
2019-03-13T00:57:58.258Z,4.80
2019-03-13T01:01:06.255Z,4.80
2019-03-13T01:04:20.297Z,4.80
2019-03-13T01:07:23.757Z,4.80
2019-03-13T01:10:27.210Z,4.70
2019-03-13T01:13:30.665Z,4.50
2019-03-13T01:16:34.397Z,4.50
2019-03-13T01:19:37.842Z,4.40
2019-03-13T01:22:41.511Z,4.40
2019-03-13T01:25:44.945Z,4.40
2019-03-13T01:28:48.491Z,4.30
2019-03-13T01:31:59.498Z,4.30
2019-03-13T01:35:04.598Z,4.30
2019-03-13T01:38:08.034Z,4.30
2019-03-13T01:41:11.535Z,4.30
2019-03-13T01:44:15.029Z,4.30
2019-03-13T01:47:18.497Z,4.30
2019-03-13T01:50:21.938Z,4.30
2019-03-13T01:53:25.399Z,4.40
2019-03-13T01:56:28.838Z,4.40
2019-03-13T01:59:32.305Z,4.40
2019-03-13T02:02:35.751Z,4.40
2019-03-13T02:05:39.278Z,4.40
2019-03-13T02:08:42.714Z,4.30
2019-03-13T02:11:46.173Z,4.30
2019-03-13T02:14:49.617Z,4.20
2019-03-13T02:17:53.068Z,4.20
2019-03-13T02:20:56.558Z,4.20
2019-03-13T02:24:00.170Z,4.10
2019-03-13T02:27:03.653Z,4.10
2019-03-13T02:30:17.189Z,4.00
2019-03-13T02:33:20.692Z,4.00
2019-03-13T02:36:24.182Z,3.90
2019-03-13T02:39:27.814Z,3.90
2019-03-13T02:42:31.271Z,3.90
2019-03-13T02:45:34.734Z,3.90
2019-03-13T02:48:38.166Z,3.90
2019-03-13T02:51:41.645Z,4.00
2019-03-13T02:54:45.153Z,4.00
2019-03-13T02:57:48.605Z,4.00
2019-03-13T03:01:10.386Z,4.00
2019-03-13T03:04:13.851Z,4.10
2019-03-13T03:07:17.357Z,4.10
2019-03-13T03:10:20.811Z,4.10
2019-03-13T03:13:24.309Z,4.10
2019-03-13T03:16:27.798Z,4.10
2019-03-13T03:19:31.321Z,4.10
2019-03-13T03:22:34.782Z,4.20
2019-03-13T03:25:38.214Z,4.20
2019-03-13T03:28:41.754Z,4.20
2019-03-13T03:31:45.227Z,4.20
2019-03-13T03:34:48.663Z,4.20
2019-03-13T03:37:52.123Z,4.30
2019-03-13T03:40:55.564Z,4.30
2019-03-13T03:43:59.580Z,4.30
2019-03-13T03:47:03.010Z,4.20
2019-03-13T03:50:11.643Z,4.10
2019-03-13T03:53:24.187Z,4.10
2019-03-13T03:56:27.627Z,4.00
2019-03-13T03:59:31.083Z,4.00
2019-03-13T04:02:34.532Z,4.00
2019-03-13T04:05:38.058Z,4.10
2019-03-13T04:08:41.538Z,4.10
2019-03-13T04:11:44.990Z,4.10
2019-03-13T04:14:48.499Z,4.10
2019-03-13T04:17:51.966Z,4.10
2019-03-13T04:20:55.455Z,4.20
2019-03-13T04:23:58.941Z,4.20
2019-03-13T04:27:02.401Z,4.20
2019-03-13T04:30:08.647Z,4.20
2019-03-13T04:33:12.179Z,4.20
2019-03-13T04:36:15.649Z,4.20
2019-03-13T04:39:19.150Z,4.20
2019-03-13T04:42:22.601Z,4.20
2019-03-13T04:45:26.091Z,4.20
2019-03-13T04:48:29.706Z,4.20
2019-03-13T04:51:33.166Z,4.20
2019-03-13T04:54:36.625Z,4.10
2019-03-13T04:57:40.136Z,4.10
2019-03-13T05:00:43.604Z,4.20
2019-03-13T05:03:47.034Z,4.20
2019-03-13T05:06:50.494Z,4.20
2019-03-13T05:09:53.945Z,4.20
2019-03-13T05:12:57.423Z,4.20
2019-03-13T05:16:01.030Z,4.10
2019-03-13T05:19:04.621Z,4.10
2019-03-13T05:22:08.082Z,4.10
2019-03-13T05:25:11.541Z,4.00
2019-03-13T05:28:14.982Z,4.10
2019-03-13T05:31:18.437Z,4.10
2019-03-13T05:34:21.881Z,4.10
2019-03-13T05:37:25.337Z,4.00
2019-03-13T05:40:30.445Z,4.00
2019-03-13T05:43:33.962Z,4.00
2019-03-13T05:46:37.422Z,4.00
2019-03-13T05:49:41.129Z,4.00
2019-03-13T05:52:44.601Z,4.00
2019-03-13T05:55:48.053Z,4.00
2019-03-13T05:58:51.520Z,4.00
2019-03-13T06:01:54.973Z,4.00
2019-03-13T06:04:58.410Z,4.10
2019-03-13T06:08:01.869Z,4.20
2019-03-13T06:11:05.373Z,4.30
2019-03-13T06:14:08.821Z,4.30
2019-03-13T06:17:12.287Z,4.40
2019-03-13T06:20:16.699Z,4.60
2019-03-13T06:23:20.135Z,4.70
2019-03-13T06:26:24.979Z,4.70
2019-03-13T06:29:31.508Z,4.70
2019-03-13T06:32:33.649Z,4.80
2019-03-13T06:35:37.093Z,4.90
2019-03-13T06:38:40.538Z,4.90
2019-03-13T06:41:44.054Z,4.90
2019-03-13T06:44:47.509Z,5.00
2019-03-13T06:47:50.945Z,5.00
2019-03-13T06:50:54.424Z,4.90
2019-03-13T06:53:57.889Z,4.80
2019-03-13T06:57:01.317Z,4.90
2019-03-13T07:00:11.938Z,4.90
2019-03-13T07:03:17.042Z,4.80
2019-03-13T07:06:24.539Z,4.80
2019-03-13T07:09:35.274Z,4.80
2019-03-13T07:12:52.555Z,4.80
2019-03-13T07:15:57.644Z,4.80
2019-03-13T07:19:02.751Z,4.80
2019-03-13T07:22:10.544Z,4.80
2019-03-13T07:25:27.746Z,4.80
2019-03-13T07:28:42.017Z,4.90
2019-03-13T07:31:47.123Z,4.90
2019-03-13T07:34:55.166Z,4.90
2019-03-13T07:38:05.954Z,4.90
2019-03-13T07:41:27.265Z,4.90
2019-03-13T07:44:32.363Z,5.00
2019-03-13T07:47:43.421Z,5.00
2019-03-13T07:50:48.521Z,5.00
2019-03-13T07:54:10.049Z,5.00
2019-03-13T07:57:16.174Z,5.10
2019-03-13T08:00:21.221Z,5.20
2019-03-13T08:03:26.307Z,5.20
2019-03-13T08:06:31.401Z,5.30
2019-03-13T08:09:52.819Z,5.30
2019-03-13T08:13:14.440Z,5.40
2019-03-13T08:16:22.445Z,5.50
2019-03-13T08:19:33.253Z,5.40
2019-03-13T08:22:42.246Z,5.40
2019-03-13T08:25:53.005Z,5.30
2019-03-13T08:28:58.108Z,5.40
2019-03-13T08:32:15.503Z,5.40
2019-03-13T08:35:26.570Z,5.40
2019-03-13T08:38:31.669Z,5.40
2019-03-13T08:41:42.703Z,5.40
2019-03-13T08:45:03.974Z,5.50
2019-03-13T08:48:25.574Z,5.60
2019-03-13T08:51:39.784Z,5.80
2019-03-13T08:54:56.658Z,5.90
2019-03-13T08:58:04.426Z,6.20
2019-03-13T09:01:15.254Z,6.80
2019-03-13T09:04:26.160Z,7.00
2019-03-13T09:07:47.650Z,7.10
2019-03-13T09:11:09.314Z,7.00
2019-03-13T09:14:17.355Z,7.00
2019-03-13T09:17:22.515Z,6.90
2019-03-13T09:20:42.537Z,6.80
2019-03-13T09:23:53.373Z,7.00
2019-03-13T09:27:07.689Z,7.10
2019-03-13T09:30:30.504Z,7.40
2019-03-13T09:33:41.652Z,7.40
2019-03-13T09:36:58.962Z,7.30
2019-03-13T09:40:07.491Z,7.20
2019-03-13T09:43:15.484Z,7.40
2019-03-13T09:46:20.581Z,7.40
2019-03-13T09:49:28.473Z,7.20
2019-03-13T09:52:36.625Z,7.30
2019-03-13T09:55:47.712Z,7.60
2019-03-13T09:59:09.014Z,7.80
2019-03-13T10:02:23.237Z,8.00
2019-03-13T10:05:28.341Z,8.00
2019-03-13T10:08:45.657Z,8.00
2019-03-13T10:11:56.718Z,8.00
2019-03-13T10:15:01.810Z,8.00
2019-03-13T10:18:15.589Z,8.00
2019-03-13T10:21:37.105Z,8.00
2019-03-13T10:24:42.177Z,7.80
2019-03-13T10:28:05.342Z,7.80
2019-03-13T10:31:16.048Z,7.60
2019-03-13T10:34:21.150Z,7.40
2019-03-13T10:37:44.282Z,7.40
2019-03-13T10:40:49.366Z,7.40
2019-03-13T10:44:09.483Z,7.40
2019-03-13T10:47:23.732Z,7.30
2019-03-13T10:50:34.510Z,7.20
2019-03-13T10:53:42.537Z,7.30
2019-03-13T10:56:47.646Z,7.30
2019-03-13T10:59:58.673Z,7.30
2019-03-13T11:03:09.455Z,7.30
2019-03-13T11:06:26.859Z,7.30
2019-03-13T11:09:32.003Z,7.30
2019-03-13T11:12:48.540Z,7.30
2019-03-13T11:15:52.958Z,7.20
2019-03-13T11:19:03.894Z,7.30
2019-03-13T11:22:14.897Z,7.30
2019-03-13T11:25:31.808Z,7.40
2019-03-13T11:28:36.910Z,7.40
2019-03-13T11:32:03.997Z,7.60
2019-03-13T11:35:15.487Z,7.40
2019-03-13T11:38:23.330Z,7.40
2019-03-13T11:41:44.949Z,7.40
2019-03-13T11:44:58.970Z,7.40
2019-03-13T11:48:12.813Z,7.40
2019-03-13T11:51:32.974Z,7.40
2019-03-13T11:54:47.153Z,7.50
2019-03-13T11:57:52.250Z,7.50
2019-03-13T12:01:09.517Z,7.70
2019-03-13T12:04:14.610Z,8.00
2019-03-13T12:07:25.698Z,8.10
2019-03-13T12:10:33.724Z,8.20
2019-03-13T12:13:41.530Z,8.10
2019-03-13T12:16:49.497Z,8.10
2019-03-13T12:19:57.265Z,8.00
2019-03-13T12:23:18.820Z,8.10
2019-03-13T12:26:39.223Z,8.10
2019-03-13T12:29:47.062Z,8.10
2019-03-13T12:32:54.845Z,8.10
2019-03-13T12:36:02.842Z,8.10
2019-03-13T12:39:14.943Z,8.00
2019-03-13T12:42:25.646Z,8.00
2019-03-13T12:45:34.738Z,7.90
2019-03-13T12:48:42.572Z,8.00
2019-03-13T12:52:03.929Z,7.90
2019-03-13T12:55:10.266Z,7.90
2019-03-13T12:58:21.294Z,7.80
2019-03-13T13:01:32.101Z,7.80
2019-03-13T13:04:52.281Z,7.70
2019-03-13T13:08:12.406Z,7.70
2019-03-13T13:11:17.516Z,7.60
2019-03-13T13:14:25.449Z,7.50
2019-03-13T13:17:30.554Z,7.60
2019-03-13T13:20:34.021Z,7.50
2019-03-13T13:23:37.462Z,7.50
2019-03-13T13:26:40.926Z,7.50
2019-03-13T13:29:44.366Z,7.50
2019-03-13T13:32:47.819Z,7.30
2019-03-13T13:35:52.166Z,7.20
2019-03-13T13:38:55.626Z,7.20
2019-03-13T13:41:59.089Z,7.20
2019-03-13T13:45:02.530Z,7.30
2019-03-13T13:48:05.997Z,7.40
2019-03-13T13:51:09.508Z,7.30
2019-03-13T13:54:12.974Z,7.20
2019-03-13T13:57:16.475Z,7.20
2019-03-13T14:00:19.917Z,7.20
2019-03-13T14:03:25.382Z,7.30
2019-03-13T14:06:28.823Z,7.40
2019-03-13T14:09:32.362Z,7.40
2019-03-13T14:12:35.826Z,7.40
2019-03-13T14:15:39.296Z,7.40
2019-03-13T14:18:42.751Z,7.40
2019-03-13T14:21:46.181Z,7.30
2019-03-13T14:24:49.641Z,7.20
2019-03-13T14:27:53.087Z,7.10
2019-03-13T14:30:56.551Z,7.00
2019-03-13T14:34:00.015Z,7.00
2019-03-13T14:37:03.462Z,6.90
2019-03-13T14:40:25.086Z,6.90
2019-03-13T14:43:28.529Z,6.90
2019-03-13T14:46:31.980Z,6.80
2019-03-13T14:49:35.426Z,6.80
2019-03-13T14:52:38.886Z,6.70
2019-03-13T14:55:42.317Z,6.80
2019-03-13T14:58:45.768Z,6.80
2019-03-13T15:01:49.204Z,6.80
2019-03-13T15:04:52.709Z,6.70
2019-03-13T15:07:56.221Z,6.70
2019-03-13T15:10:59.694Z,6.50
2019-03-13T15:14:03.134Z,6.50
2019-03-13T15:17:06.585Z,6.50
2019-03-13T15:20:23.622Z,6.30
2019-03-13T15:23:27.110Z,6.30
2019-03-13T15:26:30.586Z,6.20
2019-03-13T15:29:34.046Z,5.90
2019-03-13T15:32:37.485Z,5.90
2019-03-13T15:35:40.940Z,5.90
2019-03-13T15:38:44.401Z,5.80
2019-03-13T15:41:48.810Z,5.70
2019-03-13T15:44:52.292Z,5.70
2019-03-13T15:47:55.717Z,5.60
2019-03-13T15:50:59.180Z,5.70
2019-03-13T15:54:02.613Z,5.60
2019-03-13T15:57:06.085Z,5.60
2019-03-13T16:00:17.722Z,5.60
2019-03-13T16:03:21.203Z,5.60
2019-03-13T16:06:24.633Z,5.60
2019-03-13T16:09:28.094Z,5.50
2019-03-13T16:12:31.525Z,5.50
2019-03-13T16:15:39.317Z,5.40
2019-03-13T16:18:42.777Z,5.40
2019-03-13T16:21:46.455Z,5.40
2019-03-13T16:24:49.952Z,5.50
2019-03-13T16:27:53.457Z,5.50
2019-03-13T16:30:56.925Z,5.50
2019-03-13T16:34:00.389Z,5.30
2019-03-13T16:37:03.824Z,5.30
2019-03-13T16:40:13.514Z,5.30
2019-03-13T16:43:18.265Z,5.20
2019-03-13T16:46:21.700Z,5.20
2019-03-13T16:49:25.161Z,5.10
2019-03-13T16:52:28.621Z,5.10
2019-03-13T16:55:32.083Z,5.10
2019-03-13T16:58:35.546Z,5.00
2019-03-13T17:01:38.999Z,5.00
2019-03-13T17:04:42.519Z,5.00
2019-03-13T17:07:49.445Z,5.00
2019-03-13T17:10:51.305Z,5.00
2019-03-13T17:13:54.746Z,5.10
2019-03-13T17:16:58.214Z,5.10
2019-03-13T17:20:01.650Z,5.10
2019-03-13T17:23:05.285Z,5.00
2019-03-13T17:26:08.729Z,5.00
2019-03-13T17:29:12.202Z,5.00
2019-03-13T17:32:15.654Z,4.90
2019-03-13T17:35:19.703Z,4.90
2019-03-13T17:38:23.134Z,5.00
2019-03-13T17:41:26.580Z,5.00
2019-03-13T17:44:30.042Z,4.90
2019-03-13T17:47:33.506Z,5.00
2019-03-13T17:50:36.957Z,5.00
2019-03-13T17:53:40.414Z,4.90
2019-03-13T17:56:43.854Z,5.00
2019-03-13T17:59:47.317Z,5.00
2019-03-13T18:02:50.766Z,5.00
2019-03-13T18:05:54.225Z,5.00
2019-03-13T18:08:57.684Z,5.00
2019-03-13T18:12:01.150Z,5.10
2019-03-13T18:15:06.742Z,5.10
2019-03-13T18:18:10.194Z,5.10
2019-03-13T18:21:13.635Z,5.20
2019-03-13T18:24:17.106Z,5.20
2019-03-13T18:27:20.539Z,5.20
2019-03-13T18:30:25.533Z,5.10
2019-03-13T18:33:28.994Z,5.10
2019-03-13T18:36:32.454Z,5.00
2019-03-13T18:39:35.894Z,5.00
2019-03-13T18:42:39.350Z,5.00
2019-03-13T18:45:42.807Z,5.00
2019-03-13T18:48:46.237Z,5.00
2019-03-13T18:51:49.730Z,5.00
2019-03-13T18:54:53.302Z,4.90
2019-03-13T18:57:56.757Z,5.00
2019-03-13T19:01:00.196Z,5.00
2019-03-13T19:04:03.658Z,5.00
2019-03-13T19:07:07.098Z,5.00
2019-03-13T19:10:13.398Z,5.00
2019-03-13T19:13:16.862Z,5.10
2019-03-13T19:16:20.288Z,5.00
2019-03-13T19:19:23.751Z,5.00
2019-03-13T19:22:27.190Z,5.10
2019-03-13T19:25:32.579Z,5.10
2019-03-13T19:28:36.038Z,5.10
2019-03-13T19:31:39.506Z,5.20
2019-03-13T19:34:42.938Z,5.10
2019-03-13T19:37:46.442Z,5.20
2019-03-13T19:40:49.930Z,5.10
2019-03-13T19:43:53.361Z,5.20
2019-03-13T19:46:56.818Z,5.10
2019-03-13T19:50:00.518Z,5.10
2019-03-13T19:53:04.370Z,5.10
2019-03-13T19:56:07.829Z,5.10
2019-03-13T19:59:11.293Z,5.10
2019-03-13T20:02:14.729Z,5.00
2019-03-13T20:05:18.192Z,5.00
2019-03-13T20:08:21.639Z,5.00
2019-03-13T20:11:25.113Z,5.10
2019-03-13T20:14:28.557Z,5.10
2019-03-13T20:17:32.018Z,5.10
2019-03-13T20:20:35.466Z,5.10
2019-03-13T20:23:44.627Z,5.10
2019-03-13T20:26:48.067Z,5.00
2019-03-13T20:29:51.532Z,5.00
2019-03-13T20:32:54.973Z,5.10
2019-03-13T20:35:58.421Z,5.10
2019-03-13T20:39:01.882Z,5.00
2019-03-13T20:42:05.406Z,5.00
2019-03-13T20:45:12.082Z,5.00
2019-03-13T20:48:15.561Z,5.00
2019-03-13T20:51:19.060Z,5.00
2019-03-13T20:54:22.526Z,4.90
2019-03-13T20:57:25.961Z,5.00
2019-03-13T21:00:29.608Z,4.90
2019-03-13T21:03:33.114Z,4.90
2019-03-13T21:06:36.574Z,4.90
2019-03-13T21:09:40.006Z,4.90
2019-03-13T21:12:43.474Z,4.90
2019-03-13T21:15:46.906Z,4.80
2019-03-13T21:18:50.369Z,4.80
2019-03-13T21:21:53.804Z,4.90
2019-03-13T21:24:57.275Z,4.90
2019-03-13T21:28:00.701Z,4.90
2019-03-13T21:31:04.225Z,4.80
2019-03-13T21:34:07.781Z,4.80
2019-03-13T21:37:11.234Z,4.80
2019-03-13T21:40:19.478Z,4.80
2019-03-13T21:43:22.913Z,4.80
2019-03-13T21:46:26.388Z,4.80
2019-03-13T21:49:29.817Z,4.80
2019-03-13T21:52:33.274Z,4.90
2019-03-13T21:55:36.705Z,4.90
2019-03-13T21:58:40.310Z,4.90
2019-03-13T22:01:43.744Z,5.00
2019-03-13T22:04:47.210Z,5.00
2019-03-13T22:07:50.649Z,5.00
2019-03-13T22:10:54.131Z,5.10
2019-03-13T22:13:57.569Z,5.00
2019-03-13T22:17:01.037Z,5.10
2019-03-13T22:20:06.409Z,5.10
2019-03-13T22:23:09.870Z,5.10
2019-03-13T22:26:13.325Z,5.10
2019-03-13T22:29:16.771Z,5.00
2019-03-13T22:32:20.230Z,5.00
2019-03-13T22:35:23.715Z,5.00
2019-03-13T22:38:27.223Z,5.00
2019-03-13T22:41:30.692Z,5.00
2019-03-13T22:44:34.129Z,4.90
2019-03-13T22:47:42.609Z,4.90
2019-03-13T22:50:42.742Z,5.00
2019-03-13T22:53:46.218Z,5.00
2019-03-13T22:56:49.654Z,5.00
2019-03-13T22:59:53.105Z,5.00
2019-03-13T23:02:56.566Z,5.10
2019-03-13T23:06:00.178Z,5.10
2019-03-13T23:09:04.813Z,5.10
2019-03-13T23:12:08.247Z,5.20
2019-03-13T23:15:11.707Z,5.20
2019-03-13T23:18:18.080Z,5.10
2019-03-13T23:21:20.322Z,5.10
2019-03-13T23:24:23.794Z,5.20
2019-03-13T23:27:27.230Z,5.20
2019-03-13T23:30:30.694Z,5.20
2019-03-13T23:33:34.138Z,5.20
2019-03-13T23:36:37.615Z,5.30
2019-03-13T23:39:41.054Z,5.20
2019-03-13T23:42:44.526Z,5.20
2019-03-13T23:45:47.953Z,5.20
2019-03-13T23:48:51.425Z,5.30
2019-03-13T23:51:54.874Z,5.30
2019-03-13T23:54:58.353Z,5.30
2019-03-13T23:58:01.791Z,5.30
